Terminal Aerodrome Forecast
Issued by NWS

Home | Current Version | Previous Version | Text Only | Print | Product List | Glossary On
Versions: 1 2 3 4 5 6 7 8 9 10 11 12 13 14 15
000
FTUS43 KDMX 131134
TAFOTM
TAF
KOTM 131134Z 1312/1412 24015G23KT P6SM BKN250
     FM131500 28019G28KT P6SM BKN080
     FM131800 31025G37KT P6SM BKN035
     FM140000 31019KT P6SM BKN040
     FM140600 34010KT P6SM BKN050=

USA.gov is the U.S. government's official web portal to all federal, state and local government web resources and services.